Time;durP1;ratioP1;P1;durP2;ratioP2;P2;SDS_P1;SDS_P2;PMS_P1;PMS_P2;Temp;Humidity;BMP_temperature;BMP_pressure;BME280_temperature;BME280_humidity;BME280_pressure;Samples;Min_cycle;Max_cycle;Signal;HPM_P1;HPM_P2
2023/08/31 00:01:03;;;;;;;7.18;4.45;;;;;;;26.44;49.18;98154.84;4806470;29;20178;-86
2023/08/31 00:03:31;;;;;;;7.85;4.60;;;;;;;26.39;49.69;98157.34;4806668;29;20163;-86
2023/08/31 00:06:01;;;;;;;8.02;5.00;;;;;;;26.41;50.20;98155.28;4806592;29;20217;-86
2023/08/31 00:08:26;;;;;;;9.17;4.40;;;;;;;26.37;49.52;98164.78;4806262;29;20251;-85
2023/08/31 00:11:00;;;;;;;10.23;4.40;;;;;;;26.38;49.59;98162.94;4790427;29;20183;-86
2023/08/31 00:13:27;;;;;;;8.07;4.43;;;;;;;26.33;50.27;98170.78;4806267;29;20689;-86
2023/08/31 00:15:58;;;;;;;9.07;4.95;;;;;;;26.33;50.34;98168.91;4806735;29;20186;-86
2023/08/31 00:18:25;;;;;;;7.63;4.43;;;;;;;26.33;50.12;98176.16;4806362;29;20265;-86
2023/08/31 00:20:51;;;;;;;8.60;4.43;;;;;;;26.28;49.53;98176.75;4806217;29;20194;-86
2023/08/31 00:23:18;;;;;;;9.47;5.17;;;;;;;26.24;50.21;98181.69;4806059;29;20187;-86
2023/08/31 00:25:48;;;;;;;8.20;4.20;;;;;;;26.21;50.39;98184.78;4790100;29;20206;-86
2023/08/31 00:28:15;;;;;;;8.53;4.30;;;;;;;26.17;50.71;98180.88;4805140;29;20581;-86
2023/08/31 00:30:44;;;;;;;7.47;4.27;;;;;;;26.13;49.97;98192.19;4805136;29;20182;-86
2023/08/31 00:33:12;;;;;;;6.20;3.77;;;;;;;26.11;49.91;98191.53;4806132;29;20190;-86
2023/08/31 00:35:44;;;;;;;9.00;4.03;;;;;;;26.08;49.59;98197.31;4806563;29;20185;-86
2023/08/31 00:38:11;;;;;;;8.70;4.20;;;;;;;26.06;49.42;98200.22;4806097;29;20247;-86
2023/08/31 00:40:44;;;;;;;7.23;4.00;;;;;;;25.98;49.76;98196.88;4790032;29;20335;-86
2023/08/31 00:43:15;;;;;;;8.37;4.53;;;;;;;25.95;49.19;98203.47;4803240;29;20524;-86
2023/08/31 00:45:43;;;;;;;6.90;3.93;;;;;;;25.89;49.53;98204.25;4789983;29;20570;-86
2023/08/31 00:48:08;;;;;;;7.30;3.93;;;;;;;25.86;50.32;98199.31;4789886;29;20187;-86
2023/08/31 00:50:36;;;;;;;7.77;3.90;;;;;;;25.88;49.63;98201.78;4790022;29;20372;-86
2023/08/31 00:53:03;;;;;;;6.90;3.97;;;;;;;25.89;49.27;98193.53;4805720;29;20254;-86
2023/08/31 00:55:29;;;;;;;11.20;4.00;;;;;;;25.92;49.60;98203.03;4806121;29;20178;-85
2023/08/31 00:57:56;;;;;;;8.80;4.10;;;;;;;25.90;49.10;98210.47;4800249;29;20263;-86
2023/08/31 01:00:28;;;;;;;7.53;4.00;;;;;;;25.87;48.07;98209.00;4787847;30;20240;-86
2023/08/31 01:03:24;;;;;;;6.90;4.00;;;;;;;25.86;48.36;98214.59;4772252;30;20199;-86
2023/08/31 01:06:32;;;;;;;6.97;4.33;;;;;;;25.83;48.77;98226.56;4772404;30;20550;-86
2023/08/31 01:09:08;;;;;;;7.00;3.83;;;;;;;25.72;48.95;98224.44;4733053;30;20215;-86
2023/08/31 01:11:56;;;;;;;6.93;4.03;;;;;;;25.74;49.47;98217.00;4733324;30;20181;-86
2023/08/31 01:14:27;;;;;;;11.43;3.63;;;;;;;25.69;49.42;98224.00;4782255;30;20211;-86
2023/08/31 01:16:54;;;;;;;8.57;3.60;;;;;;;25.67;49.64;98215.31;4786829;30;20190;-86
2023/08/31 01:19:48;;;;;;;7.77;3.93;;;;;;;25.58;49.53;98220.00;4802382;29;20222;-86
2023/08/31 01:22:32;;;;;;;7.97;3.87;;;;;;;25.55;50.08;98223.09;4789737;29;20191;-86
2023/08/31 01:25:04;;;;;;;6.30;3.67;;;;;;;25.48;51.16;98222.22;4789684;29;20707;-85
2023/08/31 01:27:31;;;;;;;7.43;3.83;;;;;;;25.46;50.97;98218.91;4804706;29;20486;-86
2023/08/31 01:29:58;;;;;;;7.37;3.90;;;;;;;25.45;51.99;98227.94;4804460;29;20211;-85
2023/08/31 01:32:24;;;;;;;8.93;4.47;;;;;;;25.42;52.41;98228.38;4789651;29;20247;-86
2023/08/31 01:34:54;;;;;;;8.00;3.97;;;;;;;25.37;52.77;98230.78;4789596;29;20187;-86
2023/08/31 01:37:34;;;;;;;8.67;4.03;;;;;;;25.26;53.73;98226.78;4789618;29;20259;-86
2023/08/31 01:40:10;;;;;;;6.33;4.13;;;;;;;25.29;54.45;98239.81;4805427;29;20171;-86
2023/08/31 01:42:38;;;;;;;8.13;4.23;;;;;;;25.28;54.40;98240.84;4805762;29;20183;-85
2023/08/31 01:45:06;;;;;;;7.80;3.80;;;;;;;25.26;54.62;98245.56;4805458;29;20182;-86
2023/08/31 01:47:33;;;;;;;7.30;4.13;;;;;;;25.25;54.87;98251.13;4805463;29;20186;-85
2023/08/31 01:50:00;;;;;;;7.23;4.07;;;;;;;25.21;55.55;98252.56;4807144;29;20198;-86
2023/08/31 01:52:26;;;;;;;6.13;3.93;;;;;;;25.20;55.92;98256.25;4808692;29;20219;-86
2023/08/31 01:54:52;;;;;;;6.13;3.50;;;;;;;25.23;55.60;98261.22;4808826;29;20278;-86
2023/08/31 01:57:19;;;;;;;5.90;3.63;;;;;;;25.29;55.23;98258.59;4808688;29;20189;-85
2023/08/31 01:59:46;;;;;;;8.27;4.70;;;;;;;25.30;55.44;98252.19;4792591;29;20198;-86
2023/08/31 02:02:12;;;;;;;7.40;4.10;;;;;;;25.25;55.92;98256.50;4807590;29;20174;-86
2023/08/31 02:04:39;;;;;;;5.03;3.40;;;;;;;25.26;55.53;98260.84;4807423;29;20179;-86
2023/08/31 02:07:05;;;;;;;9.97;5.27;;;;;;;25.23;55.61;98263.91;4793217;29;20615;-86
2023/08/31 02:09:31;;;;;;;9.17;4.03;;;;;;;25.24;55.35;98265.53;4807728;29;20186;-86
2023/08/31 02:11:59;;;;;;;8.97;4.17;;;;;;;25.24;55.04;98262.88;4792400;29;20179;-86
2023/08/31 02:14:25;;;;;;;6.03;3.73;;;;;;;25.22;54.36;98262.25;4808194;29;20279;-86
2023/08/31 02:16:51;;;;;;;8.87;3.50;;;;;;;25.20;54.04;98262.44;4808242;29;20174;-86
2023/08/31 02:19:17;;;;;;;6.70;3.50;;;;;;;25.19;53.52;98268.81;4808188;29;20640;-86
2023/08/31 02:21:44;;;;;;;7.37;3.00;;;;;;;25.19;52.83;98265.31;4792072;29;20637;-86
2023/08/31 02:24:11;;;;;;;8.53;2.80;;;;;;;25.18;52.44;98269.03;4807242;29;20592;-86
2023/08/31 02:26:38;;;;;;;8.70;3.63;;;;;;;25.10;51.13;98259.28;4792482;29;20214;-86
2023/08/31 02:29:30;;;;;;;6.90;2.80;;;;;;;25.07;51.22;98265.03;4808312;29;20289;-86
2023/08/31 02:31:56;;;;;;;11.20;3.33;;;;;;;25.09;51.03;98259.44;4807350;29;20529;-86
2023/08/31 02:34:23;;;;;;;4.53;2.80;;;;;;;25.12;51.40;98277.84;4808021;29;20530;-85
2023/08/31 02:36:50;;;;;;;9.00;3.03;;;;;;;25.11;51.83;98274.31;4808225;29;20254;-86
2023/08/31 02:39:16;;;;;;;5.20;2.93;;;;;;;25.14;51.50;98271.25;4791989;29;20218;-86
2023/08/31 02:41:42;;;;;;;9.63;3.00;;;;;;;25.08;51.41;98269.34;4807824;29;20601;-85
2023/08/31 02:44:07;;;;;;;8.17;3.40;;;;;;;25.01;52.02;98269.28;4807737;29;20186;-86
2023/08/31 02:46:34;;;;;;;7.20;3.27;;;;;;;24.94;53.05;98275.63;4807972;29;20213;-86
2023/08/31 02:49:01;;;;;;;7.93;3.70;;;;;;;24.84;54.28;98281.28;4808104;29;20179;-85
2023/08/31 02:51:27;;;;;;;7.40;4.10;;;;;;;24.71;55.14;98283.00;4807769;29;20672;-86
2023/08/31 02:53:54;;;;;;;7.40;4.00;;;;;;;24.65;55.23;98279.22;4807986;29;20249;-86
2023/08/31 02:56:21;;;;;;;12.70;4.40;;;;;;;24.72;55.09;98290.84;4807466;29;20195;-85
2023/08/31 02:58:48;;;;;;;7.70;3.47;;;;;;;24.67;55.59;98292.41;4807793;29;20201;-86
2023/08/31 03:01:14;;;;;;;6.47;3.80;;;;;;;24.65;55.45;98289.09;4791109;29;20785;-86
2023/08/31 03:03:42;;;;;;;10.00;4.93;;;;;;;24.67;56.04;98295.09;4806800;29;20191;-86
2023/08/31 03:06:09;;;;;;;9.10;4.40;;;;;;;24.58;56.61;98306.97;4806362;29;20620;-86
2023/08/31 03:08:36;;;;;;;12.77;5.00;;;;;;;24.59;56.18;98300.56;4807379;29;20216;-85
2023/08/31 03:11:04;;;;;;;9.00;4.87;;;;;;;24.53;56.82;98304.03;4806395;29;20597;-86
2023/08/31 03:13:31;;;;;;;7.40;4.40;;;;;;;24.54;56.31;98306.50;4807299;29;20182;-86
2023/08/31 03:15:59;;;;;;;7.17;4.57;;;;;;;24.54;56.72;98308.34;4807238;29;20532;-86
2023/08/31 03:18:26;;;;;;;10.57;4.97;;;;;;;24.48;56.52;98312.63;4807384;29;20206;-85
2023/08/31 03:20:52;;;;;;;7.93;5.13;;;;;;;24.43;56.79;98320.38;4806886;29;20192;-86
2023/08/31 03:23:19;;;;;;;8.57;4.87;;;;;;;24.35;57.16;98318.66;4791943;29;20193;-86
2023/08/31 03:25:46;;;;;;;10.03;5.10;;;;;;;24.32;57.39;98315.50;4806683;29;20221;-86
2023/08/31 03:28:42;;;;;;;10.83;4.63;;;;;;;24.26;57.45;98311.75;4807547;29;20175;-86
2023/08/31 03:31:09;;;;;;;11.73;5.20;;;;;;;24.26;57.49;98314.44;4776006;29;20194;-86
2023/08/31 03:33:37;;;;;;;10.60;5.30;;;;;;;24.25;57.26;98319.97;4806805;29;20214;-86
2023/08/31 03:36:04;;;;;;;8.87;5.07;;;;;;;24.20;57.53;98317.00;4790873;29;20555;-86
2023/08/31 03:38:37;;;;;;;9.20;5.77;;;;;;;24.22;57.71;98321.16;4806775;29;20544;-86
2023/08/31 03:41:05;;;;;;;8.47;5.20;;;;;;;24.21;57.88;98330.19;4807408;29;20163;-85
2023/08/31 03:43:32;;;;;;;8.40;5.07;;;;;;;24.20;57.88;98323.19;4805857;29;20194;-86
2023/08/31 03:45:59;;;;;;;10.77;5.33;;;;;;;24.14;58.02;98325.78;4806646;29;20206;-86
2023/08/31 03:48:25;;;;;;;8.93;4.80;;;;;;;24.15;58.13;98325.59;4806659;29;20191;-86
2023/08/31 03:50:53;;;;;;;7.60;4.60;;;;;;;24.07;57.90;98316.81;4806913;29;20208;-86
2023/08/31 03:53:19;;;;;;;8.47;5.27;;;;;;;24.02;58.34;98319.22;4806408;29;20641;-86
2023/08/31 03:55:46;;;;;;;7.97;4.73;;;;;;;24.05;58.15;98327.72;4806600;29;20648;-86
2023/08/31 03:58:13;;;;;;;10.30;5.00;;;;;;;24.03;57.88;98331.59;4806395;29;20668;-86
2023/08/31 04:00:39;;;;;;;8.37;4.90;;;;;;;24.06;57.83;98340.06;4790789;29;20183;-85
2023/08/31 04:03:06;;;;;;;9.40;5.13;;;;;;;24.06;58.06;98336.56;4806477;29;20223;-86
2023/08/31 04:05:34;;;;;;;7.77;5.03;;;;;;;24.05;57.94;98335.75;4806231;29;20203;-86
2023/08/31 04:07:59;;;;;;;10.73;5.17;;;;;;;24.10;58.26;98332.53;4805444;29;20190;-86
2023/08/31 04:10:26;;;;;;;8.47;5.07;;;;;;;24.08;58.79;98339.91;4805426;29;20309;-86
2023/08/31 04:12:53;;;;;;;11.23;5.00;;;;;;;24.02;58.82;98343.31;4804377;29;20182;-85
2023/08/31 04:15:20;;;;;;;10.97;4.97;;;;;;;23.97;58.98;98345.72;4795176;29;20190;-85
2023/08/31 04:17:49;;;;;;;9.50;5.00;;;;;;;24.07;58.80;98347.09;4787418;30;20567;-85
2023/08/31 04:20:16;;;;;;;8.07;5.07;;;;;;;24.08;58.34;98345.25;4787513;30;20599;-85
2023/08/31 04:22:43;;;;;;;9.00;5.13;;;;;;;24.11;58.20;98356.44;4792666;29;20269;-85
2023/08/31 04:25:08;;;;;;;10.23;5.10;;;;;;;24.13;57.50;98361.63;4806241;29;20243;-85
2023/08/31 04:27:36;;;;;;;8.43;4.47;;;;;;;24.15;56.74;98367.63;4805966;29;20206;-85
2023/08/31 04:30:03;;;;;;;7.33;4.57;;;;;;;24.10;57.22;98370.84;4806183;29;20259;-86
2023/08/31 04:32:30;;;;;;;8.70;4.00;;;;;;;24.16;56.65;98374.66;4790168;29;20186;-85
2023/08/31 04:34:56;;;;;;;8.90;4.27;;;;;;;24.22;55.86;98374.72;4806589;29;20197;-85
2023/08/31 04:37:23;;;;;;;6.47;3.97;;;;;;;24.33;54.99;98376.09;4806297;29;20644;-85
2023/08/31 04:39:50;;;;;;;11.47;3.87;;;;;;;24.26;54.10;98376.03;4805872;29;20186;-86
2023/08/31 04:42:18;;;;;;;7.70;3.40;;;;;;;24.30;53.55;98377.31;4804970;29;20712;-85
2023/08/31 04:44:45;;;;;;;6.47;3.43;;;;;;;24.45;53.22;98379.97;4805340;29;20653;-85
2023/08/31 04:47:12;;;;;;;8.93;4.20;;;;;;;24.51;53.36;98381.91;4789995;29;20718;-85
2023/08/31 04:49:39;;;;;;;8.97;3.60;;;;;;;24.41;52.50;98376.00;4805215;29;20273;-86
2023/08/31 04:52:05;;;;;;;8.23;4.03;;;;;;;24.48;52.85;98371.56;4806209;29;20178;-85
2023/08/31 04:54:32;;;;;;;7.33;3.67;;;;;;;24.59;52.26;98375.59;4805842;29;20286;-85
2023/08/31 04:56:59;;;;;;;6.23;3.30;;;;;;;24.68;52.47;98380.69;4805932;29;20186;-85
2023/08/31 04:59:25;;;;;;;9.30;3.53;;;;;;;24.80;52.99;98381.88;4806109;29;20175;-85
2023/08/31 05:01:51;;;;;;;5.60;3.40;;;;;;;24.99;52.79;98375.09;4806680;29;20182;-85
2023/08/31 05:04:16;;;;;;;5.03;2.93;;;;;;;25.17;51.38;98374.66;4805607;29;20230;-86
2023/08/31 05:06:42;;;;;;;6.57;3.30;;;;;;;25.28;50.56;98376.81;4789701;29;20209;-86
2023/08/31 05:09:08;;;;;;;4.97;2.83;;;;;;;25.34;50.53;98384.13;4805496;29;20179;-86
2023/08/31 05:11:33;;;;;;;6.37;2.70;;;;;;;25.47;50.50;98389.63;4789645;29;20198;-85
2023/08/31 05:13:58;;;;;;;5.53;2.80;;;;;;;25.45;51.08;98394.31;4805600;29;20182;-85
2023/08/31 05:16:24;;;;;;;10.47;3.57;;;;;;;25.59;51.01;98401.50;4804339;29;20193;-86
2023/08/31 05:18:49;;;;;;;5.63;2.93;;;;;;;25.76;50.52;98384.06;4804898;29;20187;-85
2023/08/31 05:21:15;;;;;;;5.70;2.63;;;;;;;26.03;49.86;98385.94;4789733;29;20214;-85
2023/08/31 05:23:40;;;;;;;6.63;2.83;;;;;;;26.27;49.56;98386.53;4801878;29;20266;-85
2023/08/31 05:26:07;;;;;;;5.53;2.53;;;;;;;26.53;48.92;98394.72;4785456;29;20226;-85
2023/08/31 05:28:32;;;;;;;5.23;2.40;;;;;;;26.74;48.10;98392.75;4801779;29;20694;-86
2023/08/31 05:31:00;;;;;;;5.55;2.63;;;;;;;27.00;47.43;98386.66;4797867;29;20191;-85
2023/08/31 05:33:28;;;;;;;6.55;2.95;;;;;;;27.29;46.98;98382.78;4809198;29;20194;-86
2023/08/31 05:35:55;;;;;;;4.57;2.67;;;;;;;27.54;46.46;98383.06;4805163;29;20182;-86
2023/08/31 05:38:22;;;;;;;9.32;2.90;;;;;;;27.80;46.57;98383.06;4807772;29;20693;-86
2023/08/31 05:40:48;;;;;;;5.57;2.35;;;;;;;27.99;45.53;98383.03;4792257;29;20697;-86
2023/08/31 05:43:16;;;;;;;6.65;2.45;;;;;;;28.19;43.71;98385.72;4798041;29;20191;-86
2023/08/31 05:45:42;;;;;;;5.47;2.42;;;;;;;28.28;42.21;98392.53;4792217;29;20220;-86
2023/08/31 05:48:09;;;;;;;7.60;2.72;;;;;;;28.19;40.99;98388.44;4798549;29;20521;-86
2023/08/31 05:50:36;;;;;;;6.40;2.25;;;;;;;28.35;40.83;98387.97;4790153;30;20179;-86
2023/08/31 05:53:02;;;;;;;4.68;2.10;;;;;;;28.59;40.13;98381.03;4795459;29;20238;-86
2023/08/31 05:55:27;;;;;;;7.43;3.00;;;;;;;28.85;38.88;98385.53;4792934;29;20182;-87
2023/08/31 05:57:54;;;;;;;9.88;3.88;;;;;;;29.14;39.12;98382.28;4808724;29;20625;-87
2023/08/31 06:00:21;;;;;;;3.97;2.35;;;;;;;29.41;38.58;98385.63;4792588;29;20227;-86
2023/08/31 06:02:47;;;;;;;6.85;2.70;;;;;;;29.44;36.49;98385.19;4808507;29;20187;-87
2023/08/31 06:05:16;;;;;;;8.77;2.88;;;;;;;29.77;36.36;98378.47;4808895;29;20178;-87
2023/08/31 06:07:43;;;;;;;8.63;2.95;;;;;;;30.03;35.93;98376.63;4808838;29;20254;-87
2023/08/31 06:10:11;;;;;;;4.43;2.30;;;;;;;30.22;35.77;98384.53;4807725;29;20200;-87
2023/08/31 06:12:37;;;;;;;4.60;2.33;;;;;;;30.59;35.85;98385.41;4809295;29;20186;-86
2023/08/31 06:15:05;;;;;;;8.50;2.75;;;;;;;31.05;34.89;98387.56;4808692;29;20257;-87
2023/08/31 06:17:30;;;;;;;7.60;2.08;;;;;;;31.46;33.03;98382.19;4789300;30;20195;-87
2023/08/31 06:19:57;;;;;;;6.15;2.47;;;;;;;31.60;33.70;98401.78;4790665;30;20608;-86
2023/08/31 06:22:24;;;;;;;5.95;2.28;;;;;;;31.82;32.70;98399.31;4790334;30;20191;-87
2023/08/31 06:24:50;;;;;;;7.50;2.80;;;;;;;32.15;32.71;98397.69;4801804;29;20190;-87
2023/08/31 06:27:17;;;;;;;7.38;2.67;;;;;;;32.61;32.25;98404.19;4808146;29;20218;-87
2023/08/31 06:29:43;;;;;;;17.15;6.22;;;;;;;33.09;31.86;98412.81;4808457;29;20251;-87
2023/08/31 06:32:18;;;;;;;10.13;4.63;;;;;;;33.35;30.92;98400.53;4792534;29;20198;-87
2023/08/31 06:34:45;;;;;;;6.05;2.67;;;;;;;33.48;30.04;98415.69;4807880;29;20198;-87
2023/08/31 06:37:12;;;;;;;5.45;2.40;;;;;;;33.60;29.91;98417.31;4807940;29;20183;-87
2023/08/31 06:39:40;;;;;;;5.57;2.22;;;;;;;33.57;29.86;98408.84;4808018;29;20683;-87
2023/08/31 06:42:07;;;;;;;8.68;2.92;;;;;;;33.71;29.75;98407.44;4792229;29;20194;-87
2023/08/31 06:44:34;;;;;;;5.22;2.47;;;;;;;34.05;30.78;98409.06;4791978;29;20191;-87
2023/08/31 06:47:00;;;;;;;4.70;1.70;;;;;;;34.11;29.75;98410.84;4807842;29;20289;-88
2023/08/31 06:49:27;;;;;;;3.53;1.58;;;;;;;34.07;29.36;98420.56;4791727;29;20705;-87
2023/08/31 06:51:54;;;;;;;6.72;1.92;;;;;;;34.39;29.64;98412.59;4797086;29;20287;-86
2023/08/31 06:54:19;;;;;;;4.60;1.90;;;;;;;34.56;28.49;98418.88;4791592;29;20773;-87
2023/08/31 06:56:46;;;;;;;6.10;2.28;;;;;;;34.64;28.19;98426.59;4791841;29;20187;-87
2023/08/31 06:59:12;;;;;;;5.15;1.67;;;;;;;34.82;28.25;98418.13;4808254;29;20595;-87
2023/08/31 07:01:39;;;;;;;6.68;2.33;;;;;;;35.07;27.80;98421.16;4808110;29;20269;-88
2023/08/31 07:04:05;;;;;;;6.07;1.88;;;;;;;35.27;28.24;98415.13;4806551;29;20785;-86
2023/08/31 07:06:35;;;;;;;6.50;1.90;;;;;;;35.41;27.47;98427.25;4807518;29;20679;-87
2023/08/31 07:09:03;;;;;;;5.75;2.10;;;;;;;35.40;27.72;98417.47;4807529;29;20194;-86
2023/08/31 07:11:28;;;;;;;6.43;2.03;;;;;;;35.37;27.79;98420.69;4807186;29;20201;-87
2023/08/31 07:13:57;;;;;;;5.13;2.10;;;;;;;35.45;27.85;98422.94;4807394;29;20198;-87
2023/08/31 07:16:24;;;;;;;5.38;2.13;;;;;;;35.33;27.89;98425.00;4791452;29;20602;-88
2023/08/31 07:18:49;;;;;;;6.60;2.42;;;;;;;35.38;27.50;98416.88;4806288;29;20241;-87
2023/08/31 07:21:16;;;;;;;4.63;1.80;;;;;;;35.46;28.72;98421.03;4807612;29;20269;-87
2023/08/31 07:23:41;;;;;;;6.13;1.92;;;;;;;35.58;28.32;98414.38;4807184;29;20186;-87
2023/08/31 07:26:08;;;;;;;7.25;2.20;;;;;;;35.42;27.25;98418.00;4807180;29;20206;-87
2023/08/31 07:28:35;;;;;;;5.70;1.70;;;;;;;35.14;28.05;98424.50;4791642;29;20658;-86
2023/08/31 07:31:06;;;;;;;4.20;1.63;;;;;;;34.88;28.05;98427.19;4791802;29;20278;-88
2023/08/31 07:33:37;;;;;;;3.83;1.35;;;;;;;34.48;28.00;98431.00;4788921;29;20190;-87
2023/08/31 07:36:05;;;;;;;3.67;1.30;;;;;;;34.42;27.92;98434.72;4788322;30;20191;-87
2023/08/31 07:38:31;;;;;;;4.93;1.45;;;;;;;34.13;28.82;98425.00;4792951;29;20722;-87
2023/08/31 07:40:59;;;;;;;3.90;1.52;;;;;;;33.95;28.16;98427.97;4806006;29;20765;-87
2023/08/31 07:43:29;;;;;;;3.10;1.15;;;;;;;34.09;29.45;98429.31;4806923;29;20186;-86
2023/08/31 07:45:57;;;;;;;4.53;1.30;;;;;;;34.37;29.81;98426.47;4806844;29;20215;-86
2023/08/31 07:48:23;;;;;;;3.92;1.58;;;;;;;34.53;28.34;98424.78;4794670;29;20195;-86
2023/08/31 07:50:48;;;;;;;5.30;1.52;;;;;;;34.46;28.81;98430.41;4806646;29;20210;-86
2023/08/31 07:53:14;;;;;;;7.78;1.90;;;;;;;34.57;28.99;98428.66;4800463;29;20546;-87
2023/08/31 07:55:40;;;;;;;2.92;1.27;;;;;;;34.57;28.95;98428.66;4791130;29;20646;-86
2023/08/31 07:58:07;;;;;;;4.90;1.52;;;;;;;34.82;28.27;98436.34;4793383;29;20203;-86
2023/08/31 08:00:32;;;;;;;4.78;1.30;;;;;;;34.57;28.76;98440.38;4793094;29;20187;-87
2023/08/31 08:02:58;;;;;;;4.90;1.30;;;;;;;34.39;28.62;98431.66;4801530;29;20195;-88
2023/08/31 08:05:24;;;;;;;6.90;1.40;;;;;;;34.49;28.71;98440.78;4799160;29;20194;-87
2023/08/31 08:07:51;;;;;;;5.30;1.33;;;;;;;34.55;29.99;98428.06;4805461;29;20718;-86
2023/08/31 08:10:17;;;;;;;3.45;1.52;;;;;;;34.78;28.67;98433.31;4803853;29;20186;-86
2023/08/31 08:12:45;;;;;;;1.90;0.75;;;;;;;34.57;28.52;98432.22;4794321;29;20251;-86
2023/08/31 08:15:11;;;;;;;3.05;1.08;;;;;;;34.68;28.73;98429.63;4803428;29;20273;-88
2023/08/31 08:17:36;;;;;;;2.50;0.70;;;;;;;34.73;28.12;98435.97;4771538;29;20184;-86
2023/08/31 08:20:03;;;;;;;2.92;0.90;;;;;;;34.83;28.56;98436.09;4801002;29;20235;-86
2023/08/31 08:22:29;;;;;;;5.60;0.85;;;;;;;34.78;27.72;98433.31;4805972;29;20282;-87
2023/08/31 08:24:54;;;;;;;2.55;1.13;;;;;;;34.74;28.38;98434.06;4786816;30;20638;-86
2023/08/31 08:27:20;;;;;;;3.65;1.00;;;;;;;34.58;28.20;98433.88;4797162;29;20598;-87
2023/08/31 08:29:46;;;;;;;4.07;0.82;;;;;;;34.91;28.67;98430.19;4786554;29;20683;-86
2023/08/31 08:32:13;;;;;;;2.38;0.85;;;;;;;34.88;27.25;98424.47;4795187;29;20239;-86
2023/08/31 08:34:38;;;;;;;3.50;1.10;;;;;;;34.91;27.17;98423.94;4789916;29;20190;-86
2023/08/31 08:37:04;;;;;;;1.38;0.63;;;;;;;35.00;27.58;98419.69;4793750;29;20185;-87
2023/08/31 08:39:30;;;;;;;3.25;1.17;;;;;;;35.25;26.67;98421.94;4801121;29;20650;-86
2023/08/31 08:41:58;;;;;;;2.80;1.05;;;;;;;35.38;27.49;98427.78;4787768;29;20187;-86
2023/08/31 08:44:26;;;;;;;1.83;0.98;;;;;;;35.42;27.76;98425.38;4779103;30;20187;-87
2023/08/31 08:46:52;;;;;;;3.63;1.10;;;;;;;35.50;26.89;98423.00;4788538;29;20211;-86
2023/08/31 08:49:19;;;;;;;4.55;1.20;;;;;;;35.49;25.97;98417.78;4789298;29;20259;-87
2023/08/31 08:51:47;;;;;;;1.48;0.60;;;;;;;35.47;27.33;98415.34;4792971;29;20266;-87
2023/08/31 08:54:13;;;;;;;4.28;0.95;;;;;;;35.56;27.08;98423.91;4796603;29;20194;-86
2023/08/31 08:56:38;;;;;;;1.55;0.65;;;;;;;35.82;27.49;98417.59;4789979;29;20183;-87
2023/08/31 08:59:05;;;;;;;3.38;0.93;;;;;;;36.00;27.17;98414.47;4790985;29;20247;-87
2023/08/31 09:01:32;;;;;;;3.17;0.85;;;;;;;36.16;26.14;98407.25;4774919;29;20202;-86
2023/08/31 09:03:57;;;;;;;4.93;1.35;;;;;;;36.17;26.02;98408.88;4804311;29;20265;-87
2023/08/31 09:06:23;;;;;;;8.63;1.30;;;;;;;36.15;25.67;98411.88;4797176;29;20758;-87
2023/08/31 09:08:56;;;;;;;2.30;0.93;;;;;;;36.19;26.83;98418.44;4790445;30;20242;-87
2023/08/31 09:11:22;;;;;;;3.17;1.17;;;;;;;36.44;25.69;98420.50;4790515;29;20201;-86
2023/08/31 09:13:50;;;;;;;2.95;1.00;;;;;;;36.49;26.92;98411.56;4790903;29;20191;-87
2023/08/31 09:16:31;;;;;;;2.00;0.90;;;;;;;36.87;25.21;98420.19;4774744;29;20263;-88
2023/08/31 09:18:58;;;;;;;2.65;0.90;;;;;;;36.63;25.20;98418.19;4801817;29;20559;-86
2023/08/31 09:21:36;;;;;;;2.75;0.80;;;;;;;36.84;26.29;98423.50;4798938;29;20282;-87
2023/08/31 09:24:02;;;;;;;2.47;1.08;;;;;;;37.10;24.62;98418.13;4793063;29;20182;-87
2023/08/31 09:26:28;;;;;;;3.72;0.90;;;;;;;37.55;24.97;98416.34;4791168;29;20217;-88
2023/08/31 09:28:53;;;;;;;2.67;1.05;;;;;;;37.70;24.54;98421.03;4797446;29;20213;-89
2023/08/31 09:31:19;;;;;;;4.13;1.00;;;;;;;37.46;24.11;98415.25;4790325;29;20255;-88
2023/08/31 09:33:51;;;;;;;4.43;1.17;;;;;;;37.15;24.53;98410.78;4779967;29;20187;-87
2023/08/31 09:36:17;;;;;;;3.50;0.80;;;;;;;37.43;25.09;98410.31;4793316;29;20659;-87
2023/08/31 09:38:44;;;;;;;8.02;1.20;;;;;;;37.62;24.20;98409.78;4798448;29;20702;-87
2023/08/31 09:41:10;;;;;;;2.30;0.85;;;;;;;37.84;23.03;98399.41;4798845;29;20265;-86
2023/08/31 09:43:35;;;;;;;4.90;1.40;;;;;;;38.05;23.75;98393.66;4795567;29;20277;-87
2023/08/31 09:46:03;;;;;;;4.18;1.00;;;;;;;38.20;23.72;98395.56;4790706;30;20214;-86
2023/08/31 09:48:29;;;;;;;2.00;0.88;;;;;;;38.16;22.75;98391.72;4790670;30;20202;-86
2023/08/31 09:50:55;;;;;;;2.97;0.85;;;;;;;38.32;22.84;98390.63;4800237;29;20642;-86
2023/08/31 09:53:21;;;;;;;4.13;0.98;;;;;;;38.47;22.08;98381.56;4790514;30;20195;-86
2023/08/31 09:55:50;;;;;;;2.63;0.80;;;;;;;38.42;22.38;98384.34;4789712;30;20183;-85
2023/08/31 09:58:23;;;;;;;3.13;1.05;;;;;;;38.41;22.49;98382.69;4774749;29;20202;-86
2023/08/31 10:00:51;;;;;;;5.20;0.75;;;;;;;38.51;23.01;98379.91;4800534;29;20186;-87
2023/08/31 10:03:17;;;;;;;4.53;1.42;;;;;;;38.62;23.67;98387.81;4798399;29;20658;-86
2023/08/31 10:05:43;;;;;;;2.08;0.88;;;;;;;38.84;22.49;98382.00;4794841;29;20211;-86
2023/08/31 10:08:09;;;;;;;3.53;1.10;;;;;;;38.89;22.33;98390.19;4803491;29;20206;-86
2023/08/31 10:10:35;;;;;;;3.72;1.00;;;;;;;38.70;21.53;98391.91;4772553;30;20187;-86
2023/08/31 10:13:04;;;;;;;1.88;0.90;;;;;;;38.37;22.99;98387.06;4801755;29;20278;-86
2023/08/31 10:15:36;;;;;;;3.55;1.20;;;;;;;38.50;23.67;98383.72;4790269;30;20199;-86
2023/08/31 10:18:04;;;;;;;3.17;1.10;;;;;;;38.74;22.65;98390.22;4790535;30;20607;-87
2023/08/31 10:20:33;;;;;;;3.15;1.00;;;;;;;38.77;22.22;98388.88;4797533;29;20201;-87
2023/08/31 10:23:05;;;;;;;3.65;1.40;;;;;;;38.80;23.11;98386.41;4807075;29;20223;-87
2023/08/31 10:25:49;;;;;;;4.47;1.33;;;;;;;38.95;22.36;98383.59;4791903;29;20200;-87
2023/08/31 10:28:20;;;;;;;5.57;1.67;;;;;;;39.06;22.63;98376.94;4807943;29;20182;-87
2023/08/31 10:31:17;;;;;;;3.08;1.35;;;;;;;38.86;22.51;98373.50;4808480;29;20194;-87
2023/08/31 10:33:57;;;;;;;2.45;1.10;;;;;;;39.01;22.80;98381.63;4808521;29;20230;-87
2023/08/31 10:36:35;;;;;;;3.70;1.00;;;;;;;38.84;22.12;98382.00;4808449;29;20171;-87
2023/08/31 10:39:06;;;;;;;3.92;1.40;;;;;;;38.23;22.48;98380.50;4808127;29;20190;-87
2023/08/31 10:41:34;;;;;;;7.55;1.30;;;;;;;38.27;23.37;98379.66;4808303;29;20265;-87
2023/08/31 10:44:00;;;;;;;2.90;1.00;;;;;;;38.52;23.22;98376.09;4807050;29;20183;-87
2023/08/31 10:46:29;;;;;;;5.90;1.30;;;;;;;38.55;22.51;98367.31;4807905;29;20535;-87
2023/08/31 10:49:10;;;;;;;3.42;1.23;;;;;;;38.84;22.90;98368.28;4807896;29;20539;-87
2023/08/31 10:51:44;;;;;;;4.13;1.25;;;;;;;38.82;22.94;98365.00;4807896;29;20238;-87
2023/08/31 10:54:19;;;;;;;3.45;1.02;;;;;;;38.84;22.67;98371.03;4807096;29;20557;-87
2023/08/31 10:56:57;;;;;;;4.00;1.10;;;;;;;38.82;21.88;98367.75;4807161;29;20189;-87
2023/08/31 10:59:25;;;;;;;2.25;0.93;;;;;;;38.90;22.63;98366.34;4807805;29;20253;-86
2023/08/31 11:02:01;;;;;;;7.22;0.88;;;;;;;38.88;23.13;98365.81;4807918;29;20543;-87
2023/08/31 11:04:29;;;;;;;5.70;1.42;;;;;;;39.09;23.01;98365.44;4806497;29;20289;-87
2023/08/31 11:07:15;;;;;;;3.45;1.00;;;;;;;39.24;22.81;98357.13;4808006;29;20206;-86
2023/08/31 11:09:43;;;;;;;4.43;1.40;;;;;;;39.22;21.98;98356.59;4806625;29;20178;-87
2023/08/31 11:12:10;;;;;;;2.85;1.10;;;;;;;39.23;22.32;98352.75;4807551;29;20209;-87
2023/08/31 11:14:37;;;;;;;4.88;1.00;;;;;;;39.54;21.87;98361.59;4807394;29;20284;-86
2023/08/31 11:17:05;;;;;;;3.05;0.90;;;;;;;39.49;21.82;98355.31;4782924;30;20215;-86
2023/08/31 11:19:32;;;;;;;3.03;1.23;;;;;;;39.54;21.77;98350.59;4789575;30;20217;-86
2023/08/31 11:22:01;;;;;;;4.45;1.70;;;;;;;39.67;21.84;98349.16;4789270;29;20206;-86
2023/08/31 11:24:32;;;;;;;2.42;1.20;;;;;;;39.72;21.53;98344.44;4803356;29;20194;-87
2023/08/31 11:26:57;;;;;;;2.42;1.00;;;;;;;39.76;21.49;98336.44;4775033;29;20203;-86
2023/08/31 11:29:24;;;;;;;3.83;1.10;;;;;;;39.77;22.40;98338.09;4807432;29;20568;-87
2023/08/31 11:31:51;;;;;;;2.28;0.98;;;;;;;39.50;21.71;98333.06;4807314;29;20231;-87
2023/08/31 11:34:19;;;;;;;2.20;1.02;;;;;;;39.36;22.21;98336.75;4807823;29;20273;-86
2023/08/31 11:36:46;;;;;;;3.65;1.60;;;;;;;39.10;21.87;98330.63;4806839;29;20190;-86